createdAt,value
2018-05-12T00:00:32.465Z,14.40
2018-05-12T00:03:00.375Z,14.40
2018-05-12T00:05:28.411Z,14.40
2018-05-12T00:07:56.952Z,14.30
2018-05-12T00:10:24.561Z,14.30
2018-05-12T00:12:52.161Z,14.20
2018-05-12T00:15:20.512Z,14.00
2018-05-12T00:17:48.068Z,13.90
2018-05-12T00:20:15.682Z,13.90
2018-05-12T00:22:44.019Z,13.90
2018-05-12T00:25:11.767Z,13.80
2018-05-12T00:27:39.390Z,13.80
2018-05-12T00:30:06.971Z,13.90
2018-05-12T00:32:34.527Z,13.90
2018-05-12T00:35:02.266Z,13.80
2018-05-12T00:37:29.936Z,13.80
2018-05-12T00:40:08.160Z,13.70
2018-05-12T00:42:35.782Z,13.80
2018-05-12T00:45:03.305Z,13.80
2018-05-12T00:47:30.932Z,13.80
2018-05-12T00:49:58.529Z,13.80
2018-05-12T00:52:26.146Z,13.70
2018-05-12T00:54:54.580Z,13.70
2018-05-12T00:57:22.256Z,13.70
2018-05-12T00:59:50.366Z,13.80
2018-05-12T01:02:29.966Z,13.70
2018-05-12T01:04:57.581Z,13.70
2018-05-12T01:07:25.295Z,13.60
2018-05-12T01:09:52.953Z,13.50
2018-05-12T01:12:22.579Z,13.50
2018-05-12T01:14:51.903Z,13.50
2018-05-12T01:17:19.668Z,13.40
2018-05-12T01:19:47.315Z,13.40
2018-05-12T01:22:15.222Z,13.40
2018-05-12T01:24:43.065Z,13.30
2018-05-12T01:27:11.041Z,13.30
2018-05-12T01:29:38.936Z,13.20
2018-05-12T01:32:07.766Z,13.30
2018-05-12T01:34:35.834Z,13.30
2018-05-12T01:37:03.584Z,13.30
2018-05-12T01:39:31.459Z,13.20
2018-05-12T01:41:59.113Z,13.30
2018-05-12T01:44:27.014Z,13.30
2018-05-12T01:46:55.452Z,13.40
2018-05-12T01:49:23.041Z,13.30
2018-05-12T01:51:50.687Z,13.40
2018-05-12T01:54:19.053Z,13.40
2018-05-12T01:56:46.690Z,13.30
2018-05-12T01:59:15.622Z,13.40
2018-05-12T02:01:43.550Z,13.40
2018-05-12T02:04:11.132Z,13.40
2018-05-12T02:06:38.768Z,13.30
2018-05-12T02:09:06.604Z,13.30
2018-05-12T02:11:34.226Z,13.30
2018-05-12T02:14:01.815Z,13.30
2018-05-12T02:16:30.370Z,13.40
2018-05-12T02:18:58.297Z,13.40
2018-05-12T02:21:26.408Z,13.40
2018-05-12T02:23:54.136Z,13.30
2018-05-12T02:26:22.552Z,13.00
2018-05-12T02:28:50.247Z,13.00
2018-05-12T02:31:17.849Z,12.90
2018-05-12T02:33:45.747Z,12.80
2018-05-12T02:36:13.475Z,12.80
2018-05-12T02:38:42.110Z,12.80
2018-05-12T02:41:09.765Z,12.80
2018-05-12T02:43:47.743Z,12.70
2018-05-12T02:46:16.057Z,12.50
2018-05-12T02:48:43.680Z,12.50
2018-05-12T02:51:11.467Z,12.60
2018-05-12T02:53:40.292Z,12.50
2018-05-12T02:56:07.938Z,12.50
2018-05-12T02:58:36.496Z,12.60
2018-05-12T03:01:04.130Z,12.50
2018-05-12T03:03:34.684Z,12.60
2018-05-12T03:06:02.440Z,12.60
2018-05-12T03:08:30.895Z,12.50
2018-05-12T03:10:58.700Z,12.50
2018-05-12T03:13:27.206Z,12.60
2018-05-12T03:15:56.120Z,12.50
2018-05-12T03:18:23.739Z,12.50
2018-05-12T03:20:51.332Z,12.40
2018-05-12T03:23:18.934Z,12.40
2018-05-12T03:25:59.415Z,12.40
2018-05-12T03:28:28.320Z,12.40
2018-05-12T03:31:01.834Z,12.50
2018-05-12T03:33:36.881Z,12.50
2018-05-12T03:36:07.739Z,12.40
2018-05-12T03:38:52.302Z,12.40
2018-05-12T03:44:21.140Z,12.40
2018-05-12T03:46:50.707Z,12.40
2018-05-12T03:49:28.369Z,12.30
2018-05-12T03:52:07.314Z,12.30
2018-05-12T03:54:44.201Z,12.30
2018-05-12T03:57:14.438Z,12.30
2018-05-12T03:59:44.773Z,12.40
2018-05-12T04:02:12.814Z,12.40
2018-05-12T04:04:52.617Z,12.40
2018-05-12T04:07:34.458Z,12.40
2018-05-12T04:10:14.901Z,12.50
2018-05-12T04:12:53.021Z,12.70
2018-05-12T04:15:22.265Z,12.70
2018-05-12T04:17:57.074Z,12.80
2018-05-12T04:20:33.968Z,12.90
2018-05-12T04:23:14.182Z,13.00
2018-05-12T04:25:52.706Z,13.20
2018-05-12T04:28:34.893Z,13.30
2018-05-12T04:31:03.990Z,13.50
2018-05-12T04:33:33.083Z,13.60
2018-05-12T04:36:02.008Z,13.80
2018-05-12T04:38:30.651Z,13.80
2018-05-12T04:41:02.194Z,13.90
2018-05-12T04:43:30.715Z,13.90
2018-05-12T04:46:02.946Z,14.00
2018-05-12T04:48:32.775Z,14.00
2018-05-12T04:51:01.369Z,14.10
2018-05-12T04:53:30.321Z,14.20
2018-05-12T04:55:58.523Z,14.20
2018-05-12T04:58:29.511Z,14.40
2018-05-12T05:01:01.612Z,14.60
2018-05-12T05:06:22.505Z,14.60
2018-05-12T05:09:01.459Z,14.80
2018-05-12T05:11:32.514Z,15.10
2018-05-12T05:14:06.993Z,16.80
2018-05-12T05:19:09.140Z,17.70
2018-05-12T05:21:38.906Z,18.10
2018-05-12T05:24:06.733Z,17.80
2018-05-12T05:26:36.201Z,18.30
2018-05-12T05:29:15.448Z,18.50
2018-05-12T05:34:19.098Z,19.10
2018-05-12T05:39:49.744Z,21.20
2018-05-12T05:42:17.870Z,22.60
2018-05-12T05:44:47.681Z,23.00
2018-05-12T05:47:15.666Z,23.30
2018-05-12T05:49:52.042Z,24.00
2018-05-12T05:52:24.121Z,23.30
2018-05-12T05:54:52.819Z,23.30
2018-05-12T05:57:28.818Z,23.70
2018-05-12T06:00:06.399Z,24.70
2018-05-12T06:02:37.351Z,25.70
2018-05-12T06:05:06.050Z,25.30
2018-05-12T06:10:41.544Z,27.10
2018-05-12T06:13:10.472Z,27.00
2018-05-12T06:15:38.603Z,26.30
2018-05-12T06:18:08.478Z,25.80
2018-05-12T06:20:44.423Z,26.90
2018-05-12T06:23:13.233Z,26.80
2018-05-12T06:25:52.573Z,26.80
2018-05-12T06:28:22.607Z,27.50
2018-05-12T06:30:50.897Z,27.50
2018-05-12T06:33:18.551Z,27.60
2018-05-12T06:35:46.862Z,28.60
2018-05-12T06:38:15.518Z,29.70
2018-05-12T06:40:45.386Z,31.50
2018-05-12T06:43:16.271Z,29.70
2018-05-12T06:45:43.886Z,28.60
2018-05-12T06:48:11.602Z,30.20
2018-05-12T06:50:39.292Z,30.20
2018-05-12T06:53:07.652Z,29.10
2018-05-12T06:55:35.942Z,29.90
2018-05-12T06:58:10.170Z,30.40
2018-05-12T07:00:42.633Z,31.20
2018-05-12T07:03:12.932Z,32.50
2018-05-12T07:05:40.887Z,32.50
2018-05-12T07:08:09.636Z,32.40
2018-05-12T07:10:37.565Z,31.10
2018-05-12T07:13:05.500Z,32.90
2018-05-12T07:15:33.034Z,32.70
2018-05-12T07:18:00.655Z,33.30
2018-05-12T07:20:29.521Z,33.60
2018-05-12T07:22:58.373Z,33.80
2018-05-12T07:25:26.878Z,31.40
2018-05-12T07:27:54.458Z,31.30
2018-05-12T07:30:22.363Z,30.30
2018-05-12T07:32:49.914Z,30.90
2018-05-12T07:35:17.985Z,31.60
2018-05-12T07:37:46.169Z,31.90
2018-05-12T07:40:23.883Z,33.00
2018-05-12T07:42:51.615Z,34.60
2018-05-12T07:45:19.685Z,35.10
2018-05-12T07:47:47.437Z,34.60
2018-05-12T07:50:15.141Z,33.30
2018-05-12T07:52:43.555Z,33.70
2018-05-12T07:55:11.193Z,34.00
2018-05-12T07:57:39.114Z,35.00
2018-05-12T08:00:06.800Z,33.90
2018-05-12T08:02:35.476Z,35.30
2018-05-12T08:05:03.451Z,35.20
2018-05-12T08:07:31.961Z,36.20
2018-05-12T08:09:59.807Z,37.10
2018-05-12T08:12:38.337Z,36.50
2018-05-12T08:15:05.975Z,37.50
2018-05-12T08:17:33.647Z,37.10
2018-05-12T08:20:01.734Z,35.70
2018-05-12T08:22:29.499Z,35.80
2018-05-12T08:24:57.833Z,32.60
2018-05-12T08:27:25.682Z,32.50
2018-05-12T08:29:53.244Z,32.10
2018-05-12T08:32:21.555Z,34.80
2018-05-12T08:34:49.354Z,34.70
2018-05-12T08:37:16.950Z,35.10
2018-05-12T08:39:44.585Z,35.30
2018-05-12T08:42:15.881Z,35.70
2018-05-12T08:44:43.415Z,34.20
2018-05-12T08:47:11.072Z,33.80
2018-05-12T08:49:38.592Z,36.00
2018-05-12T08:52:06.242Z,35.90
2018-05-12T08:54:33.835Z,36.60
2018-05-12T08:57:01.377Z,35.60
2018-05-12T08:59:28.948Z,33.90
2018-05-12T09:01:56.608Z,33.60
2018-05-12T09:04:24.320Z,34.90
2018-05-12T09:06:52.467Z,35.50
2018-05-12T09:09:20.050Z,36.20
2018-05-12T09:11:49.558Z,36.30
2018-05-12T09:14:17.335Z,36.50
2018-05-12T09:16:45.597Z,35.50
2018-05-12T09:19:15.027Z,35.10
2018-05-12T09:21:43.638Z,35.30
2018-05-12T09:24:11.599Z,36.40
2018-05-12T09:26:40.184Z,36.70
2018-05-12T09:29:07.892Z,35.40
2018-05-12T09:31:35.976Z,33.90
2018-05-12T09:34:03.821Z,33.10
2018-05-12T09:36:31.633Z,33.10
2018-05-12T09:38:59.576Z,32.50
2018-05-12T09:41:27.481Z,32.20
2018-05-12T09:44:06.304Z,31.90
2018-05-12T09:46:34.048Z,31.90
2018-05-12T09:49:01.786Z,31.50
2018-05-12T09:51:29.721Z,30.90
2018-05-12T09:53:57.298Z,29.60
2018-05-12T09:56:25.216Z,29.20
2018-05-12T09:58:53.916Z,29.80
2018-05-12T10:01:21.427Z,29.80
2018-05-12T10:03:49.038Z,29.00
2018-05-12T10:06:19.968Z,28.20
2018-05-12T10:08:47.995Z,28.20
2018-05-12T10:11:16.182Z,28.30
2018-05-12T10:13:43.781Z,28.20
2018-05-12T10:16:11.273Z,28.40
2018-05-12T10:18:39.128Z,27.30
2018-05-12T10:21:06.819Z,27.20
2018-05-12T10:23:34.575Z,27.20
2018-05-12T10:28:35.732Z,28.00
2018-05-12T10:31:04.136Z,27.30
2018-05-12T10:33:31.780Z,27.20
2018-05-12T10:35:59.398Z,27.40
2018-05-12T10:38:27.071Z,26.80
2018-05-12T10:40:55.243Z,27.10
2018-05-12T10:43:23.627Z,26.40
2018-05-12T10:45:52.506Z,26.40
2018-05-12T10:48:21.578Z,26.40
2018-05-12T10:50:49.406Z,26.90
2018-05-12T10:53:17.925Z,26.50
2018-05-12T10:55:45.497Z,26.50
2018-05-12T10:58:13.015Z,26.20
2018-05-12T11:00:40.630Z,26.30
2018-05-12T11:03:08.963Z,26.30
2018-05-12T11:05:36.604Z,26.30
2018-05-12T11:08:04.484Z,26.10
2018-05-12T11:10:32.071Z,26.10
2018-05-12T11:12:59.605Z,25.90
2018-05-12T11:15:28.033Z,25.70
2018-05-12T11:17:55.676Z,25.70
2018-05-12T11:20:23.959Z,25.50
2018-05-12T11:22:52.105Z,25.50
2018-05-12T11:25:19.639Z,26.10
2018-05-12T11:27:47.148Z,26.80
2018-05-12T11:30:14.693Z,26.70
2018-05-12T11:32:42.192Z,27.00
2018-05-12T11:35:09.712Z,27.00
2018-05-12T11:37:38.086Z,26.40
2018-05-12T11:40:05.689Z,26.50
2018-05-12T11:42:33.417Z,26.20
2018-05-12T11:45:01.146Z,26.30
2018-05-12T11:47:28.662Z,25.80
2018-05-12T11:49:56.438Z,25.90
2018-05-12T11:52:24.099Z,25.60
2018-05-12T11:54:51.942Z,26.00
2018-05-12T11:57:19.483Z,26.10
2018-05-12T11:59:47.077Z,26.20
2018-05-12T12:02:15.582Z,26.40
2018-05-12T12:04:44.051Z,26.30
2018-05-12T12:07:25.127Z,26.20
2018-05-12T12:09:53.148Z,26.20
2018-05-12T12:12:30.866Z,26.60
2018-05-12T12:14:58.661Z,26.30
2018-05-12T12:17:26.311Z,26.70
2018-05-12T12:19:54.098Z,26.30
2018-05-12T12:22:21.758Z,26.50
2018-05-12T12:24:50.945Z,25.90
2018-05-12T12:27:18.849Z,25.90
2018-05-12T12:29:46.838Z,26.10
2018-05-12T12:32:14.819Z,26.10
2018-05-12T12:34:43.515Z,26.20
2018-05-12T12:37:11.538Z,26.50
2018-05-12T12:39:39.272Z,25.90
2018-05-12T12:42:06.837Z,26.30
2018-05-12T12:44:36.538Z,26.40
2018-05-12T12:47:05.031Z,26.40
2018-05-12T12:49:33.089Z,26.50
2018-05-12T12:52:01.925Z,26.50
2018-05-12T12:54:30.620Z,26.40
2018-05-12T12:56:58.395Z,26.40
2018-05-12T12:59:25.917Z,26.20
2018-05-12T13:01:53.563Z,25.60
2018-05-12T13:04:21.978Z,26.30
2018-05-12T13:06:50.848Z,26.30
2018-05-12T13:09:19.568Z,26.30
2018-05-12T13:11:47.239Z,26.30
2018-05-12T13:14:14.913Z,26.70
2018-05-12T13:16:42.480Z,26.60
2018-05-12T13:19:20.156Z,26.40
2018-05-12T13:21:48.037Z,25.70
2018-05-12T13:24:15.632Z,26.00
2018-05-12T13:26:44.216Z,26.10
2018-05-12T13:29:12.230Z,26.00
2018-05-12T13:31:39.903Z,25.90
2018-05-12T13:34:07.512Z,26.00
2018-05-12T13:36:36.863Z,26.30
2018-05-12T13:39:06.095Z,26.00
2018-05-12T13:41:34.479Z,26.10
2018-05-12T13:46:50.399Z,25.80
2018-05-12T13:49:17.917Z,25.80
2018-05-12T13:51:45.443Z,25.70
2018-05-12T13:54:13.347Z,25.70
2018-05-12T13:56:41.133Z,25.70
2018-05-12T13:59:09.711Z,25.60
2018-05-12T14:01:38.215Z,25.30
2018-05-12T14:04:05.875Z,25.30
2018-05-12T14:06:39.249Z,25.50
2018-05-12T14:09:07.689Z,25.80
2018-05-12T14:11:36.389Z,26.00
2018-05-12T14:14:04.352Z,26.10
2018-05-12T14:16:32.661Z,25.70
2018-05-12T14:19:00.901Z,25.70
2018-05-12T14:21:32.527Z,25.80
2018-05-12T14:24:01.830Z,25.50
2018-05-12T14:26:31.747Z,25.60
2018-05-12T14:29:00.058Z,26.10
2018-05-12T14:31:27.749Z,26.10
2018-05-12T14:33:55.536Z,26.30
2018-05-12T14:36:24.025Z,26.10
2018-05-12T14:38:52.077Z,26.00
2018-05-12T14:41:20.726Z,26.00
2018-05-12T14:43:48.224Z,26.00
2018-05-12T14:46:16.508Z,25.70
2018-05-12T14:48:44.031Z,25.70
2018-05-12T14:51:11.549Z,25.60
2018-05-12T14:53:39.060Z,25.50
2018-05-12T14:56:06.564Z,25.50
2018-05-12T14:58:34.164Z,25.50
2018-05-12T15:01:01.745Z,25.60
2018-05-12T15:03:30.050Z,25.60
2018-05-12T15:05:58.430Z,25.90
2018-05-12T15:08:26.784Z,25.90
2018-05-12T15:10:54.345Z,25.90
2018-05-12T15:13:22.005Z,25.90
2018-05-12T15:15:49.761Z,25.70
2018-05-12T15:18:17.293Z,25.60
2018-05-12T15:20:45.046Z,25.40
2018-05-12T15:23:12.629Z,25.30
2018-05-12T15:25:40.181Z,25.40
2018-05-12T15:28:07.721Z,25.50
2018-05-12T15:30:35.260Z,25.50
2018-05-12T15:33:02.786Z,25.20
2018-05-12T15:35:30.339Z,25.20
2018-05-12T15:37:57.857Z,25.20
2018-05-12T15:40:25.382Z,25.40
2018-05-12T15:42:53.057Z,25.50
2018-05-12T15:45:20.710Z,25.40
2018-05-12T15:47:49.147Z,25.50
2018-05-12T15:50:16.701Z,25.50
2018-05-12T15:52:44.369Z,25.40
2018-05-12T15:55:12.019Z,25.30
2018-05-12T15:57:40.315Z,25.20
2018-05-12T16:00:08.698Z,25.00
2018-05-12T16:02:36.219Z,25.00
2018-05-12T16:05:03.775Z,24.90
2018-05-12T16:07:31.356Z,24.70
2018-05-12T16:09:58.879Z,24.60
2018-05-12T16:12:26.543Z,24.80
2018-05-12T16:14:54.101Z,24.80
2018-05-12T16:17:21.693Z,24.70
2018-05-12T16:19:49.961Z,24.90
2018-05-12T16:22:17.670Z,24.80
2018-05-12T16:24:45.302Z,24.80
2018-05-12T16:27:12.828Z,24.70
2018-05-12T16:29:41.305Z,24.70
2018-05-12T16:32:08.968Z,24.70
2018-05-12T16:34:36.844Z,24.60
2018-05-12T16:37:04.614Z,24.50
2018-05-12T16:39:32.653Z,24.50
2018-05-12T16:42:00.536Z,24.50
2018-05-12T16:44:28.201Z,24.50
2018-05-12T16:46:55.858Z,24.60
2018-05-12T16:49:24.348Z,24.50
2018-05-12T16:51:51.904Z,24.50
2018-05-12T16:54:19.443Z,24.50
2018-05-12T16:56:47.375Z,24.40
2018-05-12T16:59:15.727Z,24.40
2018-05-12T17:01:43.327Z,24.40
2018-05-12T17:04:11.445Z,24.40
2018-05-12T17:06:40.143Z,24.40
2018-05-12T17:09:07.898Z,24.10
2018-05-12T17:11:36.225Z,24.00
2018-05-12T17:14:03.944Z,24.00
2018-05-12T17:16:31.559Z,23.90
2018-05-12T17:18:59.192Z,23.80
2018-05-12T17:21:26.851Z,23.70
2018-05-12T17:23:55.348Z,23.70
2018-05-12T17:26:23.587Z,23.70
2018-05-12T17:28:51.184Z,23.70
2018-05-12T17:31:18.906Z,23.60
2018-05-12T17:33:46.462Z,23.40
2018-05-12T17:36:14.018Z,23.40
2018-05-12T17:38:42.475Z,23.30
2018-05-12T17:41:11.004Z,23.20
2018-05-12T17:43:38.812Z,23.20
2018-05-12T17:46:06.508Z,23.10
2018-05-12T17:48:35.427Z,22.90
2018-05-12T17:51:02.958Z,22.90
2018-05-12T17:53:30.673Z,22.80
2018-05-12T17:56:08.693Z,22.80
2018-05-12T17:58:36.309Z,22.70
2018-05-12T18:01:04.248Z,22.60
2018-05-12T18:03:38.374Z,22.50
2018-05-12T18:06:12.088Z,22.50
2018-05-12T18:08:39.959Z,22.50
2018-05-12T18:11:09.802Z,22.30
2018-05-12T18:13:38.189Z,22.30
2018-05-12T18:16:06.068Z,22.30
2018-05-12T18:18:33.880Z,22.20
2018-05-12T18:21:02.659Z,22.10
2018-05-12T18:23:30.421Z,22.00
2018-05-12T18:26:04.024Z,22.00
2018-05-12T18:28:33.836Z,21.70
2018-05-12T18:31:05.795Z,21.70
2018-05-12T18:33:33.558Z,21.50
2018-05-12T18:36:01.330Z,21.40
2018-05-12T18:38:29.170Z,21.30
2018-05-12T18:40:57.261Z,21.10
2018-05-12T18:43:25.022Z,20.90
2018-05-12T18:45:53.910Z,20.50
2018-05-12T18:48:22.222Z,20.50
2018-05-12T18:50:50.103Z,20.40
2018-05-12T18:53:18.084Z,20.30
2018-05-12T18:55:45.720Z,20.20
2018-05-12T18:58:13.589Z,20.00
2018-05-12T19:00:41.273Z,19.90
2018-05-12T19:03:09.585Z,19.80
2018-05-12T19:05:37.582Z,19.80
2018-05-12T19:08:05.638Z,19.70
2018-05-12T19:10:33.540Z,19.60
2018-05-12T19:13:02.042Z,19.40
2018-05-12T19:15:29.864Z,19.40
2018-05-12T19:17:57.419Z,19.30
2018-05-12T19:20:25.924Z,19.30
2018-05-12T19:22:53.458Z,19.20
2018-05-12T19:25:20.977Z,19.00
2018-05-12T19:27:48.582Z,18.90
2018-05-12T19:30:16.937Z,18.70
2018-05-12T19:32:44.554Z,18.70
2018-05-12T19:35:12.028Z,18.60
2018-05-12T19:37:40.384Z,18.50
2018-05-12T19:40:08.002Z,18.50
2018-05-12T19:42:35.574Z,18.40
2018-05-12T19:45:03.169Z,18.30
2018-05-12T19:47:30.745Z,18.10
2018-05-12T19:49:58.381Z,18.20
2018-05-12T19:52:26.683Z,17.90
2018-05-12T19:54:54.259Z,17.90
2018-05-12T19:57:21.873Z,17.80
2018-05-12T19:59:49.469Z,17.80
2018-05-12T20:02:17.045Z,17.70
2018-05-12T20:04:44.586Z,17.70
2018-05-12T20:07:12.210Z,17.60
2018-05-12T20:09:40.611Z,17.50
2018-05-12T20:12:08.981Z,17.40
2018-05-12T20:14:37.294Z,17.30
2018-05-12T20:17:04.872Z,17.30
2018-05-12T20:19:32.565Z,17.20
2018-05-12T20:22:00.442Z,17.20
2018-05-12T20:24:28.039Z,17.10
2018-05-12T20:26:55.600Z,17.10
2018-05-12T20:29:23.189Z,17.10
2018-05-12T20:31:50.824Z,17.10
2018-05-12T20:34:18.442Z,17.00
2018-05-12T20:36:46.021Z,17.00
2018-05-12T20:39:13.571Z,17.00
2018-05-12T20:41:41.132Z,17.00
2018-05-12T20:44:08.723Z,16.90
2018-05-12T20:46:36.298Z,16.90
2018-05-12T20:49:04.044Z,16.90
2018-05-12T20:51:31.570Z,16.90
2018-05-12T20:53:59.225Z,16.80
2018-05-12T20:56:26.821Z,16.80
2018-05-12T20:58:55.172Z,16.70
2018-05-12T21:01:22.791Z,16.70
2018-05-12T21:03:51.186Z,16.60
2018-05-12T21:06:19.563Z,16.60
2018-05-12T21:08:47.117Z,16.60
2018-05-12T21:11:14.704Z,16.60
2018-05-12T21:13:42.291Z,16.50
2018-05-12T21:16:10.659Z,16.50
2018-05-12T21:18:38.230Z,16.50
2018-05-12T21:21:05.774Z,16.40
2018-05-12T21:23:33.689Z,16.50
2018-05-12T21:26:01.266Z,16.50
2018-05-12T21:28:28.841Z,16.60
2018-05-12T21:30:57.145Z,16.80
2018-05-12T21:33:25.484Z,16.60
2018-05-12T21:35:53.052Z,16.60
2018-05-12T21:38:20.612Z,16.60
2018-05-12T21:40:48.239Z,16.60
2018-05-12T21:43:16.634Z,16.80
2018-05-12T21:45:45.014Z,16.80
2018-05-12T21:48:12.645Z,16.80
2018-05-12T21:50:40.181Z,16.90
2018-05-12T21:53:07.756Z,17.10
2018-05-12T21:55:35.313Z,17.10
2018-05-12T21:58:03.669Z,17.00
2018-05-12T22:00:31.283Z,17.00
2018-05-12T22:02:59.658Z,16.90
2018-05-12T22:05:27.214Z,16.90
2018-05-12T22:07:54.840Z,16.80
2018-05-12T22:10:23.168Z,16.80
2018-05-12T22:12:50.723Z,16.80
2018-05-12T22:15:18.269Z,16.80
2018-05-12T22:17:46.600Z,16.70
2018-05-12T22:20:14.156Z,16.70
2018-05-12T22:22:41.763Z,16.70
2018-05-12T22:25:09.319Z,16.80
2018-05-12T22:27:36.894Z,16.90
2018-05-12T22:30:04.455Z,16.80
2018-05-12T22:32:32.005Z,16.80
2018-05-12T22:34:59.601Z,16.70
2018-05-12T22:37:27.195Z,16.60
2018-05-12T22:39:54.796Z,16.50
2018-05-12T22:42:23.107Z,16.40
2018-05-12T22:44:50.722Z,16.40
2018-05-12T22:47:18.307Z,16.40
2018-05-12T22:49:45.893Z,16.40
2018-05-12T22:52:13.469Z,16.40
2018-05-12T22:54:41.824Z,16.30
2018-05-12T22:57:09.361Z,16.30
2018-05-12T22:59:36.900Z,16.30
2018-05-12T23:02:04.497Z,16.30
2018-05-12T23:04:32.087Z,16.20
2018-05-12T23:06:59.772Z,16.10
2018-05-12T23:09:27.340Z,16.00
2018-05-12T23:11:54.936Z,16.00
2018-05-12T23:14:22.507Z,15.90
2018-05-12T23:16:50.083Z,15.90
2018-05-12T23:19:17.858Z,15.80
2018-05-12T23:21:45.456Z,15.70
2018-05-12T23:24:13.091Z,15.60
2018-05-12T23:26:40.864Z,15.50
2018-05-12T23:29:08.661Z,15.50
2018-05-12T23:31:36.256Z,15.40
2018-05-12T23:34:04.692Z,15.40
2018-05-12T23:36:32.328Z,15.40
2018-05-12T23:39:00.002Z,15.40
2018-05-12T23:41:27.580Z,15.40
2018-05-12T23:43:55.914Z,15.40
2018-05-12T23:46:23.529Z,15.40
2018-05-12T23:48:51.108Z,15.50
2018-05-12T23:51:18.762Z,15.50
2018-05-12T23:53:47.037Z,15.60
2018-05-12T23:56:14.611Z,15.60
2018-05-12T23:58:42.909Z,15.60
